createdAt,value
2023-03-26T00:00:54.139Z,13.60
2023-03-26T00:03:22.431Z,16.88
2023-03-26T00:05:49.781Z,18.38
2023-03-26T00:08:16.967Z,18.63
2023-03-26T00:10:44.204Z,18.92
2023-03-26T00:13:11.251Z,19.58
2023-03-26T00:15:38.186Z,14.30
2023-03-26T00:18:05.806Z,17.35
2023-03-26T00:20:35.526Z,16.33
2023-03-26T00:23:02.321Z,16.63
2023-03-26T00:25:29.199Z,18.77
2023-03-26T00:27:55.973Z,17.58
2023-03-26T00:30:23.225Z,20.27
2023-03-26T00:32:53.363Z,18.45
2023-03-26T00:35:20.925Z,17.88
2023-03-26T00:37:47.935Z,21.35
2023-03-26T00:40:14.720Z,19.30
2023-03-26T00:42:42.532Z,16.85
2023-03-26T00:45:09.812Z,14.07
2023-03-26T00:47:37.171Z,13.27
2023-03-26T00:50:04.358Z,15.85
2023-03-26T00:52:31.774Z,23.77
2023-03-26T00:54:58.764Z,14.55
2023-03-26T00:57:35.562Z,15.75
2023-03-26T01:00:10.134Z,16.90
2023-03-26T01:02:37.111Z,16.15
2023-03-26T01:05:36.069Z,15.93
2023-03-26T01:08:23.229Z,18.27
2023-03-26T01:10:51.575Z,55.75
2023-03-26T01:13:23.035Z,16.50
2023-03-26T01:15:51.123Z,16.58
2023-03-26T01:18:19.941Z,13.90
2023-03-26T01:20:49.732Z,16.92
2023-03-26T01:23:23.837Z,17.90
2023-03-26T01:26:12.272Z,17.08
2023-03-26T01:28:41.433Z,16.95
2023-03-26T01:31:30.464Z,16.50
2023-03-26T01:34:37.460Z,13.13
2023-03-26T01:37:17.671Z,16.73
2023-03-26T01:39:57.065Z,16.80
2023-03-26T01:42:47.223Z,16.42
2023-03-26T01:45:16.769Z,18.92
2023-03-26T01:47:43.624Z,11.80
2023-03-26T01:50:10.581Z,16.38
2023-03-26T01:52:38.036Z,12.13
2023-03-26T01:55:05.432Z,18.33
2023-03-26T01:57:38.449Z,13.50
2023-03-26T02:00:44.463Z,15.65
2023-03-26T02:03:18.126Z,13.27
2023-03-26T02:05:50.656Z,14.23
2023-03-26T02:08:38.377Z,14.00
2023-03-26T02:11:11.888Z,16.20
2023-03-26T02:16:08.020Z,13.48
2023-03-26T02:18:39.115Z,14.25
2023-03-26T02:21:10.064Z,10.55
2023-03-26T02:23:46.978Z,9.93
2023-03-26T02:26:16.248Z,11.20
2023-03-26T02:28:57.814Z,6.93
2023-03-26T02:31:30.254Z,4.75
2023-03-26T02:33:57.312Z,6.55
2023-03-26T02:36:27.638Z,5.90
2023-03-26T02:38:58.163Z,8.60
2023-03-26T02:41:25.457Z,11.40
2023-03-26T02:43:58.178Z,5.72
2023-03-26T02:49:37.464Z,3.72
2023-03-26T02:52:06.674Z,3.90
2023-03-26T02:54:35.146Z,6.57
2023-03-26T02:57:16.284Z,8.02
2023-03-26T02:59:43.263Z,3.28
2023-03-26T03:02:30.095Z,6.40
2023-03-26T03:05:08.423Z,8.40
2023-03-26T03:07:38.664Z,3.80
2023-03-26T03:10:08.660Z,6.95
2023-03-26T03:12:55.642Z,5.60
2023-03-26T03:15:22.447Z,7.95
2023-03-26T03:17:49.360Z,4.18
2023-03-26T03:20:16.843Z,5.80
2023-03-26T03:22:43.809Z,4.93
2023-03-26T03:25:14.322Z,6.45
2023-03-26T03:27:42.844Z,6.65
2023-03-26T03:30:13.169Z,7.63
2023-03-26T03:32:45.683Z,4.95
2023-03-26T03:35:14.720Z,3.42
2023-03-26T03:37:44.692Z,5.93
2023-03-26T03:40:11.947Z,5.30
2023-03-26T03:42:39.584Z,6.68
2023-03-26T03:45:08.417Z,3.15
2023-03-26T03:48:01.369Z,2.92
2023-03-26T03:50:37.166Z,8.65
2023-03-26T03:53:26.459Z,4.50
2023-03-26T03:55:56.071Z,3.33
2023-03-26T03:58:28.404Z,1.00
2023-03-26T04:01:04.274Z,4.38
2023-03-26T04:03:50.384Z,5.30
2023-03-26T04:06:20.395Z,3.60
2023-03-26T04:08:52.306Z,2.88
2023-03-26T04:11:19.461Z,4.13
2023-03-26T04:14:10.212Z,2.42
2023-03-26T04:16:55.002Z,2.05
2023-03-26T04:19:22.954Z,2.00
2023-03-26T04:21:49.828Z,0.95
2023-03-26T04:24:20.493Z,2.05
2023-03-26T04:27:16.204Z,1.25
2023-03-26T04:29:45.877Z,1.98
2023-03-26T04:32:29.831Z,1.20
2023-03-26T04:35:00.283Z,1.58
2023-03-26T04:37:34.509Z,1.75
2023-03-26T04:40:20.255Z,2.33
2023-03-26T04:43:06.411Z,3.15
2023-03-26T04:46:07.521Z,3.22
2023-03-26T04:48:40.540Z,1.77
2023-03-26T04:51:18.285Z,1.10
2023-03-26T04:53:54.092Z,1.00
2023-03-26T04:56:51.335Z,1.83
2023-03-26T04:59:53.704Z,0.65
2023-03-26T05:02:21.264Z,1.70
2023-03-26T05:04:51.907Z,1.23
2023-03-26T05:07:20.956Z,0.95
2023-03-26T05:09:51.308Z,2.60
2023-03-26T05:12:34.657Z,0.70
2023-03-26T05:15:11.487Z,2.88
2023-03-26T05:17:58.620Z,0.50
2023-03-26T05:20:33.581Z,1.75
2023-03-26T05:23:01.352Z,2.58
2023-03-26T05:25:31.021Z,1.45
2023-03-26T05:27:59.551Z,2.00
2023-03-26T05:30:33.455Z,1.25
2023-03-26T05:33:02.778Z,1.70
2023-03-26T05:35:36.689Z,2.97
2023-03-26T05:38:04.537Z,1.75
2023-03-26T05:40:31.333Z,0.80
2023-03-26T05:43:00.715Z,1.63
2023-03-26T05:45:49.847Z,2.45
2023-03-26T05:48:25.452Z,1.67
2023-03-26T05:50:54.839Z,1.00
2023-03-26T05:53:22.418Z,1.10
2023-03-26T05:56:07.555Z,1.08
2023-03-26T05:58:34.795Z,1.58
2023-03-26T06:01:20.788Z,1.10
2023-03-26T06:04:12.571Z,1.95
2023-03-26T06:06:46.316Z,1.23
2023-03-26T06:09:13.695Z,1.77
2023-03-26T06:11:41.932Z,0.40
2023-03-26T06:14:09.081Z,6.22
2023-03-26T06:16:38.869Z,0.65
2023-03-26T06:19:13.641Z,0.68
2023-03-26T06:21:54.576Z,2.47
2023-03-26T06:24:30.089Z,1.67
2023-03-26T06:27:15.759Z,0.70
2023-03-26T06:29:52.986Z,1.42
2023-03-26T06:32:32.505Z,1.10
2023-03-26T06:35:09.950Z,1.00
2023-03-26T06:37:37.053Z,1.52
2023-03-26T06:40:04.654Z,0.73
2023-03-26T06:43:09.586Z,0.70
2023-03-26T06:45:57.086Z,0.55
2023-03-26T06:48:47.003Z,0.88
2023-03-26T06:51:32.344Z,0.75
2023-03-26T06:54:08.364Z,0.63
2023-03-26T06:56:49.946Z,0.85
2023-03-26T06:59:42.980Z,0.65
2023-03-26T07:02:28.391Z,0.30
2023-03-26T07:05:15.737Z,0.50
2023-03-26T07:08:00.980Z,0.40
2023-03-26T07:10:46.784Z,0.50
2023-03-26T07:13:24.540Z,1.63
2023-03-26T07:15:57.128Z,0.63
2023-03-26T07:18:50.972Z,0.45
2023-03-26T07:21:22.674Z,11.68
2023-03-26T07:23:50.121Z,0.28
2023-03-26T07:26:34.750Z,1.25
2023-03-26T07:29:25.575Z,0.10
2023-03-26T07:32:16.155Z,0.88
2023-03-26T07:35:17.157Z,0.90
2023-03-26T07:38:23.203Z,1.05
2023-03-26T07:41:23.885Z,1.70
2023-03-26T07:44:15.472Z,1.77
2023-03-26T07:47:29.161Z,0.30
2023-03-26T07:50:19.123Z,0.75
2023-03-26T07:53:09.859Z,1.30
2023-03-26T07:56:01.627Z,1.65
2023-03-26T07:59:07.121Z,0.70
2023-03-26T08:01:52.085Z,1.35
2023-03-26T08:04:39.311Z,1.23
2023-03-26T08:07:25.061Z,0.45
2023-03-26T08:10:37.200Z,0.70
2023-03-26T08:13:35.043Z,1.15
2023-03-26T08:16:08.204Z,1.30
2023-03-26T08:19:29.923Z,0.98
2023-03-26T08:22:16.935Z,0.60
2023-03-26T08:25:03.319Z,0.30
2023-03-26T08:27:34.498Z,0.32
2023-03-26T08:30:11.938Z,0.65
2023-03-26T08:32:39.082Z,0.20
2023-03-26T08:35:06.633Z,0.73
2023-03-26T08:37:33.546Z,0.85
2023-03-26T08:40:00.733Z,0.32
2023-03-26T08:42:52.195Z,0.73
2023-03-26T08:45:28.099Z,0.63
2023-03-26T08:48:03.937Z,2.42
2023-03-26T08:50:36.650Z,0.80
2023-03-26T08:53:22.010Z,1.90
2023-03-26T08:56:01.700Z,1.95
2023-03-26T08:59:01.893Z,1.02
2023-03-26T09:01:32.012Z,0.30
2023-03-26T09:04:30.874Z,0.30
2023-03-26T09:07:10.037Z,0.55
2023-03-26T09:10:02.953Z,0.30
2023-03-26T09:12:47.725Z,0.50
2023-03-26T09:15:28.034Z,0.65
2023-03-26T09:18:09.890Z,0.30
2023-03-26T09:21:21.523Z,0.30
2023-03-26T09:24:00.403Z,0.73
2023-03-26T09:26:34.455Z,0.82
2023-03-26T09:29:07.298Z,1.85
2023-03-26T09:31:59.433Z,0.90
2023-03-26T09:34:38.707Z,0.40
2023-03-26T09:37:18.862Z,0.13
2023-03-26T09:39:57.812Z,0.45
2023-03-26T09:42:44.734Z,0.60
2023-03-26T09:45:53.187Z,1.50
2023-03-26T09:48:19.994Z,0.28
2023-03-26T09:50:56.196Z,1.10
2023-03-26T09:53:54.446Z,0.45
2023-03-26T09:56:47.040Z,0.55
2023-03-26T09:59:25.674Z,0.50
2023-03-26T10:02:45.797Z,1.38
2023-03-26T10:05:27.139Z,0.55
2023-03-26T10:08:01.610Z,0.63
2023-03-26T10:10:57.587Z,1.58
2023-03-26T10:13:29.965Z,1.08
2023-03-26T10:16:14.786Z,1.55
2023-03-26T10:18:42.266Z,0.50
2023-03-26T10:21:34.571Z,0.52
2023-03-26T10:24:16.680Z,1.08
2023-03-26T10:27:08.957Z,1.55
2023-03-26T10:30:04.259Z,1.55
2023-03-26T10:32:44.355Z,1.15
2023-03-26T10:35:43.075Z,1.08
2023-03-26T10:38:20.798Z,1.50
2023-03-26T10:41:17.156Z,1.38
2023-03-26T10:44:05.208Z,2.53
2023-03-26T10:47:02.773Z,1.65
2023-03-26T10:49:39.774Z,1.10
2023-03-26T10:52:16.029Z,1.27
2023-03-26T10:54:49.005Z,0.40
2023-03-26T10:57:37.348Z,0.88
2023-03-26T11:00:33.530Z,1.15
2023-03-26T11:03:21.003Z,1.77
2023-03-26T11:05:49.816Z,1.02
2023-03-26T11:08:32.617Z,1.33
2023-03-26T11:11:36.352Z,0.82
2023-03-26T11:14:33.822Z,1.13
2023-03-26T11:17:40.677Z,1.25
2023-03-26T11:20:11.218Z,0.77
2023-03-26T11:22:50.407Z,1.13
2023-03-26T11:25:41.907Z,0.82
2023-03-26T11:29:03.592Z,0.55
2023-03-26T11:32:11.786Z,0.40
2023-03-26T11:34:58.405Z,0.73
2023-03-26T11:37:42.108Z,0.70
2023-03-26T11:40:21.303Z,0.20
2023-03-26T11:42:48.868Z,0.47
2023-03-26T11:45:24.317Z,0.90
2023-03-26T11:48:08.138Z,1.23
2023-03-26T11:53:13.537Z,1.13
2023-03-26T11:56:06.310Z,1.75
2023-03-26T11:58:40.443Z,0.82
2023-03-26T12:01:18.850Z,1.00
2023-03-26T12:04:03.508Z,0.52
2023-03-26T12:06:30.543Z,2.42
2023-03-26T12:08:57.581Z,0.30
2023-03-26T12:11:32.603Z,0.45
2023-03-26T12:14:01.926Z,1.00
2023-03-26T12:16:28.933Z,0.82
2023-03-26T12:19:00.133Z,1.42
2023-03-26T12:21:27.201Z,0.40
2023-03-26T12:23:56.358Z,1.05
2023-03-26T12:26:41.322Z,3.97
2023-03-26T12:29:13.185Z,2.42
2023-03-26T12:31:56.437Z,1.55
2023-03-26T12:34:34.756Z,2.47
2023-03-26T12:37:01.974Z,8.55
2023-03-26T12:40:12.009Z,2.38
2023-03-26T12:44:55.267Z,3.90
2023-03-26T12:45:40.782Z,0.77
2023-03-26T12:48:07.897Z,1.23
2023-03-26T12:51:29.417Z,3.15
2023-03-26T12:53:59.362Z,3.35
2023-03-26T12:56:39.094Z,2.88
2023-03-26T12:59:18.588Z,2.92
2023-03-26T13:01:55.842Z,3.90
2023-03-26T13:04:37.747Z,1.77
2023-03-26T13:07:25.978Z,2.78
2023-03-26T13:10:19.673Z,6.70
2023-03-26T13:13:05.180Z,2.72
2023-03-26T13:15:39.442Z,5.57
2023-03-26T13:18:31.521Z,22.65
2023-03-26T13:21:04.706Z,6.68
2023-03-26T13:23:58.546Z,7.22
2023-03-26T13:26:46.989Z,9.52
2023-03-26T13:29:34.633Z,6.28
2023-03-26T13:32:26.402Z,6.70
2023-03-26T13:35:10.737Z,6.72
2023-03-26T13:38:18.339Z,11.00
2023-03-26T13:40:58.596Z,6.65
2023-03-26T13:43:52.988Z,9.25
2023-03-26T13:46:35.916Z,6.07
2023-03-26T13:49:44.960Z,7.50
2023-03-26T13:52:26.890Z,5.55
2023-03-26T13:55:03.338Z,8.43
2023-03-26T13:57:35.370Z,8.13
2023-03-26T14:00:12.807Z,9.95
2023-03-26T14:02:40.717Z,8.45
2023-03-26T14:05:26.636Z,10.68
2023-03-26T14:08:00.596Z,8.05
2023-03-26T14:10:30.700Z,5.78
2023-03-26T14:13:09.848Z,8.63
2023-03-26T14:15:42.137Z,6.53
2023-03-26T14:18:35.102Z,9.35
2023-03-26T14:21:29.221Z,12.00
2023-03-26T14:26:27.280Z,9.95
2023-03-26T14:29:12.953Z,7.82
2023-03-26T14:32:02.515Z,9.05
2023-03-26T14:34:41.368Z,12.02
2023-03-26T14:37:27.366Z,8.43
2023-03-26T14:40:15.051Z,9.10
2023-03-26T14:42:59.139Z,8.27
2023-03-26T14:45:47.528Z,5.72
2023-03-26T14:48:26.510Z,8.25
2023-03-26T14:51:08.012Z,6.53
2023-03-26T14:53:36.535Z,9.05
2023-03-26T14:56:24.835Z,11.80
2023-03-26T14:59:18.984Z,6.72
2023-03-26T15:04:53.552Z,8.63
2023-03-26T15:07:23.193Z,7.95
2023-03-26T15:10:28.694Z,7.80
2023-03-26T15:13:10.476Z,7.68
2023-03-26T15:15:43.221Z,4.93
2023-03-26T15:18:37.061Z,8.98
2023-03-26T15:21:17.454Z,6.07
2023-03-26T15:24:02.627Z,7.18
2023-03-26T15:26:48.553Z,8.10
2023-03-26T15:29:30.689Z,7.30
2023-03-26T15:32:22.336Z,5.57
2023-03-26T15:35:31.975Z,3.42
2023-03-26T15:38:35.532Z,6.95
2023-03-26T15:41:17.605Z,3.13
2023-03-26T15:46:38.697Z,4.47
2023-03-26T15:49:52.216Z,2.28
2023-03-26T15:52:19.081Z,1.75
2023-03-26T15:55:04.049Z,6.25
2023-03-26T15:57:44.730Z,2.83
2023-03-26T16:00:25.248Z,4.93
2023-03-26T16:03:09.138Z,5.18
2023-03-26T16:08:39.456Z,4.95
2023-03-26T16:11:12.516Z,5.22
2023-03-26T16:13:43.874Z,4.68
2023-03-26T16:16:16.143Z,3.83
2023-03-26T16:18:44.013Z,6.40
2023-03-26T16:21:31.132Z,8.02
2023-03-26T16:24:02.253Z,5.07
2023-03-26T16:26:52.380Z,3.95
2023-03-26T16:29:26.871Z,7.47
2023-03-26T16:31:58.329Z,1.85
2023-03-26T16:34:57.336Z,3.28
2023-03-26T16:37:36.679Z,5.53
2023-03-26T16:40:27.231Z,2.88
2023-03-26T16:43:30.344Z,3.60
2023-03-26T16:46:15.554Z,1.90
2023-03-26T16:48:58.414Z,5.97
2023-03-26T16:52:05.093Z,4.38
2023-03-26T16:54:44.095Z,2.72
2023-03-26T16:57:29.379Z,3.63
2023-03-26T17:00:07.733Z,1.83
2023-03-26T17:02:48.027Z,4.28
2023-03-26T17:05:34.291Z,3.05
2023-03-26T17:08:46.477Z,4.75
2023-03-26T17:11:24.455Z,4.13
2023-03-26T17:14:22.534Z,3.35
2023-03-26T17:17:10.924Z,4.10
2023-03-26T17:19:50.438Z,4.57
2023-03-26T17:22:37.955Z,2.13
2023-03-26T17:25:52.202Z,4.75
2023-03-26T17:28:47.400Z,1.38
2023-03-26T17:31:27.670Z,2.83
2023-03-26T17:33:54.811Z,1.75
2023-03-26T17:36:43.439Z,3.92
2023-03-26T17:39:21.586Z,5.13
2023-03-26T17:41:53.315Z,10.85
2023-03-26T17:44:37.568Z,7.72
2023-03-26T17:47:06.616Z,6.22
2023-03-26T17:49:34.107Z,4.32
2023-03-26T17:52:19.952Z,2.75
2023-03-26T17:54:51.294Z,1.90
2023-03-26T17:57:54.836Z,3.97
2023-03-26T18:00:23.567Z,2.42
2023-03-26T18:02:54.513Z,4.57
2023-03-26T18:05:21.739Z,2.75
2023-03-26T18:08:02.050Z,2.15
2023-03-26T18:10:43.763Z,3.35
2023-03-26T18:13:17.163Z,5.63
2023-03-26T18:16:16.012Z,3.10
2023-03-26T18:18:57.949Z,4.38
2023-03-26T18:21:32.734Z,1.83
2023-03-26T18:24:00.614Z,3.97
2023-03-26T18:26:36.282Z,6.38
2023-03-26T18:29:24.012Z,5.35
2023-03-26T18:31:58.365Z,3.50
2023-03-26T18:34:26.173Z,6.25
2023-03-26T18:37:11.370Z,3.95
2023-03-26T18:39:38.604Z,5.38
2023-03-26T18:42:06.556Z,2.22
2023-03-26T18:44:35.545Z,2.65
2023-03-26T18:47:09.656Z,3.38
2023-03-26T18:49:36.786Z,3.03
2023-03-26T18:52:03.814Z,4.53
2023-03-26T18:54:34.022Z,4.75
2023-03-26T18:57:15.280Z,3.83
2023-03-26T18:59:45.229Z,3.50
2023-03-26T19:02:13.675Z,5.22
2023-03-26T19:04:41.720Z,4.95
2023-03-26T19:07:15.231Z,2.25
2023-03-26T19:09:42.540Z,3.35
2023-03-26T19:12:20.130Z,4.43
2023-03-26T19:15:16.184Z,3.00
2023-03-26T19:17:46.945Z,3.83
2023-03-26T19:20:18.289Z,5.78
2023-03-26T19:22:46.343Z,2.30
2023-03-26T19:25:42.656Z,3.13
2023-03-26T19:28:25.813Z,3.85
2023-03-26T19:30:57.975Z,2.67
2023-03-26T19:33:32.501Z,3.40
2023-03-26T19:36:04.893Z,4.35
2023-03-26T19:38:38.986Z,2.80
2023-03-26T19:41:06.451Z,1.92
2023-03-26T19:43:33.295Z,4.60
2023-03-26T19:46:01.278Z,4.32
2023-03-26T19:48:46.113Z,2.97
2023-03-26T19:51:22.170Z,4.05
2023-03-26T19:53:53.121Z,6.10
2023-03-26T19:56:20.864Z,7.90
2023-03-26T19:58:48.617Z,3.63
2023-03-26T20:01:20.991Z,3.90
2023-03-26T20:03:49.362Z,6.28
2023-03-26T20:06:17.890Z,3.22
2023-03-26T20:08:44.817Z,6.10
2023-03-26T20:11:18.570Z,4.30
2023-03-26T20:13:45.417Z,3.17
2023-03-26T20:16:23.376Z,4.68
2023-03-26T20:18:53.769Z,4.20
2023-03-26T20:21:20.696Z,5.07
2023-03-26T20:23:48.005Z,5.88
2023-03-26T20:26:15.537Z,3.03
2023-03-26T20:28:48.295Z,6.63
2023-03-26T20:31:22.075Z,4.30
2023-03-26T20:33:49.977Z,4.80
2023-03-26T20:36:33.778Z,2.08
2023-03-26T20:39:06.004Z,4.40
2023-03-26T20:41:33.718Z,0.88
2023-03-26T20:44:01.059Z,8.88
2023-03-26T20:46:31.120Z,2.85
2023-03-26T20:48:58.950Z,4.57
2023-03-26T20:51:27.134Z,1.42
2023-03-26T20:53:53.969Z,2.50
2023-03-26T20:56:22.036Z,5.32
2023-03-26T20:59:09.761Z,1.33
2023-03-26T21:01:38.166Z,4.60
2023-03-26T21:04:06.238Z,3.22
2023-03-26T21:06:33.147Z,4.88
2023-03-26T21:09:00.573Z,4.03
2023-03-26T21:11:49.349Z,2.95
2023-03-26T21:14:22.497Z,3.58
2023-03-26T21:16:49.698Z,5.80
2023-03-26T21:19:20.412Z,2.30
2023-03-26T21:21:59.737Z,3.72
2023-03-26T21:24:40.943Z,3.72
2023-03-26T21:27:26.469Z,3.45
2023-03-26T21:29:55.453Z,5.32
2023-03-26T21:32:23.271Z,3.17
2023-03-26T21:34:58.453Z,3.38
2023-03-26T21:37:26.959Z,5.63
2023-03-26T21:39:54.509Z,2.83
2023-03-26T21:42:21.714Z,2.58
2023-03-26T21:44:49.597Z,10.15
2023-03-26T21:47:16.988Z,7.30
2023-03-26T21:49:44.331Z,2.38
2023-03-26T21:52:15.075Z,2.58
2023-03-26T21:54:43.096Z,1.90
2023-03-26T21:57:28.445Z,1.63
2023-03-26T22:00:18.676Z,1.90
2023-03-26T22:03:08.403Z,2.20
2023-03-26T22:05:45.348Z,3.75
2023-03-26T22:08:33.230Z,3.65
2023-03-26T22:11:00.115Z,1.40
2023-03-26T22:13:27.245Z,2.92
2023-03-26T22:15:54.238Z,1.25
2023-03-26T22:18:21.739Z,3.65
2023-03-26T22:20:49.023Z,4.07
2023-03-26T22:23:16.694Z,1.05
2023-03-26T22:25:44.033Z,3.63
2023-03-26T22:28:11.072Z,5.57
2023-03-26T22:30:38.737Z,5.40
2023-03-26T22:33:06.035Z,7.10
2023-03-26T22:35:32.845Z,3.55
2023-03-26T22:38:00.752Z,4.75
2023-03-26T22:40:28.381Z,2.35
2023-03-26T22:42:55.276Z,2.38
2023-03-26T22:45:22.913Z,3.47
2023-03-26T22:47:49.985Z,4.70
2023-03-26T22:50:16.870Z,4.30
2023-03-26T22:52:43.740Z,3.58
2023-03-26T22:55:11.592Z,5.50
2023-03-26T22:57:39.096Z,4.88
2023-03-26T23:00:16.319Z,4.55
2023-03-26T23:02:46.494Z,3.45
2023-03-26T23:05:14.002Z,2.35
2023-03-26T23:07:42.449Z,5.57
2023-03-26T23:10:09.656Z,1.48
2023-03-26T23:12:36.781Z,3.55
2023-03-26T23:15:05.274Z,7.18
2023-03-26T23:17:34.363Z,4.97
2023-03-26T23:20:02.415Z,5.30
2023-03-26T23:22:29.234Z,5.68
2023-03-26T23:24:56.119Z,3.50
2023-03-26T23:27:23.168Z,2.85
2023-03-26T23:29:50.125Z,3.53
2023-03-26T23:32:23.649Z,3.13
2023-03-26T23:34:52.143Z,3.58
2023-03-26T23:37:23.327Z,4.47
2023-03-26T23:39:50.990Z,6.22
2023-03-26T23:42:28.816Z,5.15
2023-03-26T23:44:57.249Z,4.15
2023-03-26T23:47:24.529Z,3.17
2023-03-26T23:49:51.549Z,3.92
2023-03-26T23:52:18.865Z,5.50
2023-03-26T23:54:45.795Z,2.13
2023-03-26T23:57:12.850Z,3.75
2023-03-26T23:59:41.467Z,3.47
